createdAt,value
2018-02-08T00:01:17.051Z,102.83
2018-02-08T00:03:43.400Z,104.60
2018-02-08T00:06:09.629Z,112.87
2018-02-08T00:08:36.612Z,103.87
2018-02-08T00:11:02.871Z,101.83
2018-02-08T00:13:29.119Z,108.40
2018-02-08T00:15:55.366Z,104.80
2018-02-08T00:18:22.371Z,109.67
2018-02-08T00:20:48.629Z,107.57
2018-02-08T00:23:14.875Z,104.07
2018-02-08T00:25:41.123Z,104.63
2018-02-08T00:28:07.390Z,103.27
2018-02-08T00:30:33.635Z,109.40
2018-02-08T00:32:59.899Z,109.17
2018-02-08T00:35:26.902Z,104.17
2018-02-08T00:37:53.152Z,115.93
2018-02-08T00:40:19.386Z,109.03
2018-02-08T00:42:45.624Z,112.80
2018-02-08T00:45:12.604Z,100.53
2018-02-08T00:47:38.872Z,108.37
2018-02-08T00:50:05.286Z,99.47
2018-02-08T00:52:31.532Z,108.50
2018-02-08T00:54:57.798Z,96.97
2018-02-08T00:57:24.805Z,114.67
2018-02-08T00:59:51.034Z,100.43
2018-02-08T01:02:17.276Z,100.83
2018-02-08T01:04:43.496Z,103.80
2018-02-08T01:07:09.950Z,104.63
2018-02-08T01:09:36.176Z,104.10
2018-02-08T01:12:02.457Z,97.47
2018-02-08T01:14:28.699Z,97.70
2018-02-08T01:16:54.974Z,102.97
2018-02-08T01:19:22.003Z,97.23
2018-02-08T01:21:48.249Z,103.60
2018-02-08T01:24:14.478Z,97.67
2018-02-08T01:26:40.699Z,111.17
2018-02-08T01:29:06.927Z,99.90
2018-02-08T01:31:33.163Z,102.97
2018-02-08T01:34:00.149Z,107.07
2018-02-08T01:36:26.406Z,100.60
2018-02-08T01:38:52.639Z,103.37
2018-02-08T01:41:18.865Z,95.17
2018-02-08T01:43:45.091Z,108.33
2018-02-08T01:46:11.348Z,105.30
2018-02-08T01:48:38.351Z,93.20
2018-02-08T01:51:04.614Z,96.70
2018-02-08T01:53:30.851Z,97.10
2018-02-08T01:55:57.082Z,112.50
2018-02-08T01:58:23.344Z,94.63
2018-02-08T02:00:49.572Z,111.00
2018-02-08T02:03:15.804Z,97.23
2018-02-08T02:05:42.045Z,106.67
2018-02-08T02:08:08.278Z,103.03
2018-02-08T02:10:35.352Z,92.33
2018-02-08T02:13:01.595Z,101.67
2018-02-08T02:15:27.886Z,99.83
2018-02-08T02:17:54.123Z,105.10
2018-02-08T02:20:20.431Z,105.60
2018-02-08T02:22:46.681Z,98.37
2018-02-08T02:25:12.901Z,107.30
2018-02-08T02:27:39.136Z,94.47
2018-02-08T02:30:05.366Z,89.33
2018-02-08T02:32:31.617Z,107.27
2018-02-08T02:34:57.835Z,100.10
2018-02-08T02:37:24.060Z,105.57
2018-02-08T02:39:50.341Z,107.10
2018-02-08T02:42:17.343Z,110.67
2018-02-08T02:44:43.562Z,104.20
2018-02-08T02:47:09.809Z,107.43
2018-02-08T02:49:36.094Z,97.27
2018-02-08T02:52:02.364Z,95.33
2018-02-08T02:54:28.616Z,92.10
2018-02-08T02:56:54.854Z,100.37
2018-02-08T02:59:21.840Z,100.10
2018-02-08T03:01:48.100Z,99.80
2018-02-08T03:04:14.366Z,99.60
2018-02-08T03:06:40.598Z,92.90
2018-02-08T03:09:07.572Z,101.63
2018-02-08T03:11:33.785Z,99.77
2018-02-08T03:14:00.758Z,103.57
2018-02-08T03:16:26.996Z,101.00
2018-02-08T03:18:53.254Z,101.33
2018-02-08T03:21:19.498Z,123.70
2018-02-08T03:23:45.727Z,118.43
2018-02-08T03:26:12.649Z,95.33
2018-02-08T03:28:38.888Z,106.23
2018-02-08T03:31:09.062Z,103.57
2018-02-08T03:33:35.280Z,101.47
2018-02-08T03:36:01.514Z,108.93
2018-02-08T03:38:27.794Z,112.07
2018-02-08T03:40:54.018Z,105.33
2018-02-08T03:43:20.245Z,120.83
2018-02-08T03:45:46.705Z,99.60
2018-02-08T03:48:12.952Z,113.73
2018-02-08T03:50:39.925Z,109.97
2018-02-08T03:53:06.188Z,108.03
2018-02-08T03:55:32.440Z,114.37
2018-02-08T03:57:58.671Z,105.53
2018-02-08T04:00:25.674Z,117.40
2018-02-08T04:02:51.925Z,99.37
2018-02-08T04:05:18.174Z,109.43
2018-02-08T04:07:44.407Z,108.73
2018-02-08T04:10:11.370Z,103.93
2018-02-08T04:12:37.617Z,97.13
2018-02-08T04:15:03.879Z,117.53
2018-02-08T04:17:30.115Z,105.70
2018-02-08T04:19:56.338Z,107.80
2018-02-08T04:22:22.587Z,110.93
2018-02-08T04:24:48.855Z,106.87
2018-02-08T04:27:15.091Z,105.37
2018-02-08T04:29:41.339Z,104.37
2018-02-08T04:32:07.611Z,103.70
2018-02-08T04:34:33.862Z,105.23
2018-02-08T04:37:00.215Z,100.33
2018-02-08T04:39:45.311Z,107.57
2018-02-08T04:42:30.083Z,114.07
2018-02-08T04:45:15.006Z,113.53
2018-02-08T04:47:57.045Z,109.60
2018-02-08T04:50:23.279Z,104.67
2018-02-08T04:52:49.504Z,99.87
2018-02-08T04:55:15.743Z,113.33
2018-02-08T04:57:41.963Z,113.47
2018-02-08T05:00:08.203Z,112.80
2018-02-08T05:02:34.445Z,111.80
2018-02-08T05:05:00.655Z,105.40
2018-02-08T05:07:26.929Z,96.53
2018-02-08T05:09:53.239Z,109.00
2018-02-08T05:12:20.207Z,108.37
2018-02-08T05:14:46.464Z,110.43
2018-02-08T05:17:12.692Z,105.47
2018-02-08T05:19:38.944Z,115.67
2018-02-08T05:22:05.196Z,111.17
2018-02-08T05:24:31.431Z,129.47
2018-02-08T05:26:58.436Z,104.40
2018-02-08T05:29:24.675Z,118.83
2018-02-08T05:31:50.892Z,102.23
2018-02-08T05:34:17.124Z,107.17
2018-02-08T05:36:43.367Z,115.37
2018-02-08T05:39:09.627Z,121.20
2018-02-08T05:41:36.616Z,113.43
2018-02-08T05:44:02.850Z,106.20
2018-02-08T05:46:29.120Z,107.67
2018-02-08T05:48:55.362Z,110.87
2018-02-08T05:51:22.362Z,96.80
2018-02-08T05:53:48.588Z,105.83
2018-02-08T05:56:14.848Z,110.47
2018-02-08T05:58:41.076Z,106.30
2018-02-08T06:01:07.337Z,116.43
2018-02-08T06:03:34.323Z,113.30
2018-02-08T06:06:00.557Z,117.00
2018-02-08T06:08:26.789Z,106.50
2018-02-08T06:10:53.041Z,119.73
2018-02-08T06:13:19.342Z,101.73
2018-02-08T06:15:45.609Z,117.33
2018-02-08T06:18:11.867Z,115.90
2018-02-08T06:20:38.111Z,119.93
2018-02-08T06:23:04.360Z,106.50
2018-02-08T06:25:30.669Z,108.90
2018-02-08T06:27:57.015Z,112.63
2018-02-08T06:30:23.287Z,110.93
2018-02-08T06:32:49.493Z,115.23
2018-02-08T06:35:18.068Z,109.83
2018-02-08T06:37:44.315Z,112.60
2018-02-08T06:40:10.609Z,111.47
2018-02-08T06:42:36.840Z,105.10
2018-02-08T06:45:03.068Z,108.87
2018-02-08T06:47:29.299Z,107.40
2018-02-08T06:49:55.532Z,122.60
2018-02-08T06:52:21.784Z,118.53
2018-02-08T06:54:48.016Z,133.27
2018-02-08T06:57:14.254Z,118.27
2018-02-08T06:59:40.532Z,114.00
2018-02-08T07:02:06.763Z,118.40
2018-02-08T07:04:33.038Z,115.23
2018-02-08T07:07:00.022Z,108.10
2018-02-08T07:09:26.270Z,104.50
2018-02-08T07:11:52.560Z,109.63
2018-02-08T07:14:18.833Z,128.10
2018-02-08T07:16:45.055Z,111.43
2018-02-08T07:19:11.326Z,106.90
2018-02-08T07:21:37.602Z,104.03
2018-02-08T07:24:04.655Z,106.07
2018-02-08T07:26:30.951Z,108.67
2018-02-08T07:28:57.233Z,112.90
2018-02-08T07:31:23.463Z,126.53
2018-02-08T07:33:49.750Z,108.93
2018-02-08T07:36:16.026Z,114.30
2018-02-08T07:38:42.291Z,105.07
2018-02-08T07:41:08.570Z,112.10
2018-02-08T07:43:34.846Z,110.00
2018-02-08T07:46:01.113Z,105.33
2018-02-08T07:48:28.116Z,111.93
2018-02-08T07:50:54.405Z,117.90
2018-02-08T07:53:21.425Z,115.40
2018-02-08T07:55:48.428Z,118.50
2018-02-08T07:58:14.670Z,112.63
2018-02-08T08:00:40.928Z,107.53
2018-02-08T08:03:07.170Z,103.23
2018-02-08T08:05:34.160Z,109.50
2018-02-08T08:08:00.452Z,112.70
2018-02-08T08:10:27.496Z,115.00
2018-02-08T08:12:54.549Z,105.00
2018-02-08T08:15:21.639Z,108.83
2018-02-08T08:17:47.929Z,102.70
2018-02-08T08:20:14.983Z,107.20
2018-02-08T08:22:41.271Z,102.77
2018-02-08T08:25:07.564Z,103.53
2018-02-08T08:27:33.866Z,107.73
2018-02-08T08:30:00.872Z,111.60
2018-02-08T08:32:28.289Z,102.17
2018-02-08T08:34:54.561Z,114.87
2018-02-08T08:37:20.882Z,94.87
2018-02-08T08:39:47.212Z,122.40
2018-02-08T08:42:14.322Z,109.13
2018-02-08T08:44:40.872Z,107.47
2018-02-08T08:47:07.338Z,119.33
2018-02-08T08:49:33.917Z,113.73
2018-02-08T08:52:00.969Z,116.13
2018-02-08T08:54:27.277Z,113.27
2018-02-08T08:56:54.273Z,116.30
2018-02-08T08:59:20.647Z,117.00
2018-02-08T09:01:46.976Z,104.20
2018-02-08T09:04:13.308Z,106.90
2018-02-08T09:06:39.589Z,115.97
2018-02-08T09:09:05.832Z,106.40
2018-02-08T09:11:32.168Z,101.33
2018-02-08T09:13:58.432Z,103.13
2018-02-08T09:16:24.721Z,101.50
2018-02-08T09:18:50.953Z,113.43
2018-02-08T09:21:17.204Z,92.43
2018-02-08T09:23:43.532Z,110.83
2018-02-08T09:26:09.936Z,113.23
2018-02-08T09:28:36.230Z,110.97
2018-02-08T09:31:03.276Z,112.83
2018-02-08T09:33:30.366Z,107.17
2018-02-08T09:35:57.372Z,108.90
2018-02-08T09:38:24.375Z,109.47
2018-02-08T09:40:50.644Z,104.57
2018-02-08T09:43:16.895Z,109.67
2018-02-08T09:45:44.020Z,107.60
2018-02-08T09:48:10.265Z,101.53
2018-02-08T09:50:36.509Z,120.40
2018-02-08T09:53:02.761Z,115.23
2018-02-08T09:55:29.011Z,110.23
2018-02-08T09:57:55.295Z,106.10
2018-02-08T10:00:21.583Z,108.57
2018-02-08T10:02:47.872Z,119.90
2018-02-08T10:05:14.299Z,108.87
2018-02-08T10:07:40.554Z,107.97
2018-02-08T10:10:06.831Z,104.67
2018-02-08T10:12:33.122Z,101.50
2018-02-08T10:14:59.355Z,96.67
2018-02-08T10:17:25.646Z,101.67
2018-02-08T10:19:51.886Z,103.07
2018-02-08T10:22:18.211Z,101.63
2018-02-08T10:24:44.512Z,104.93
2018-02-08T10:27:11.484Z,106.27
2018-02-08T10:29:37.718Z,98.67
2018-02-08T10:32:04.018Z,95.17
2018-02-08T10:34:31.040Z,102.63
2018-02-08T10:36:57.496Z,106.07
2018-02-08T10:39:24.484Z,114.53
2018-02-08T10:41:50.772Z,108.90
2018-02-08T10:44:17.775Z,92.50
2018-02-08T10:46:44.035Z,85.03
2018-02-08T10:49:11.055Z,98.33
2018-02-08T10:51:37.361Z,88.13
2018-02-08T10:54:03.588Z,100.33
2018-02-08T10:56:29.847Z,76.50
2018-02-08T10:58:56.107Z,69.03
2018-02-08T11:01:22.367Z,83.37
2018-02-08T11:03:48.635Z,86.57
2018-02-08T11:06:14.889Z,76.13
2018-02-08T11:08:41.135Z,76.73
2018-02-08T11:11:08.145Z,73.13
2018-02-08T11:13:34.411Z,78.50
2018-02-08T11:16:01.384Z,77.37
2018-02-08T11:18:27.671Z,73.17
2018-02-08T11:20:53.916Z,66.43
2018-02-08T11:23:20.886Z,63.63
2018-02-08T11:25:47.154Z,60.30
2018-02-08T11:28:13.436Z,62.07
2018-02-08T11:30:40.452Z,65.03
2018-02-08T11:33:06.737Z,61.73
2018-02-08T11:35:33.026Z,67.53
2018-02-08T11:38:00.161Z,62.17
2018-02-08T11:40:27.141Z,73.53
2018-02-08T11:42:53.428Z,65.77
2018-02-08T11:45:19.991Z,58.90
2018-02-08T11:47:46.999Z,68.47
2018-02-08T11:50:13.245Z,59.00
2018-02-08T11:52:39.545Z,60.83
2018-02-08T11:55:05.844Z,65.63
2018-02-08T11:57:32.903Z,70.43
2018-02-08T11:59:59.137Z,60.80
2018-02-08T12:02:25.406Z,56.20
2018-02-08T12:04:51.676Z,64.47
2018-02-08T12:07:18.688Z,63.20
2018-02-08T12:09:44.968Z,54.90
2018-02-08T12:12:11.264Z,66.40
2018-02-08T12:14:38.304Z,65.00
2018-02-08T12:17:05.354Z,65.27
2018-02-08T12:19:31.598Z,63.77
2018-02-08T12:21:58.665Z,67.53
2018-02-08T12:24:25.668Z,61.83
2018-02-08T12:26:51.926Z,67.40
2018-02-08T12:29:18.927Z,52.00
2018-02-08T12:31:45.169Z,61.60
2018-02-08T12:34:11.471Z,61.53
2018-02-08T12:36:37.728Z,65.27
2018-02-08T12:39:03.972Z,65.20
2018-02-08T12:41:30.212Z,63.23
2018-02-08T12:43:57.242Z,63.63
2018-02-08T12:46:23.531Z,66.10
2018-02-08T12:48:49.777Z,60.67
2018-02-08T12:51:16.145Z,61.70
2018-02-08T12:53:42.375Z,52.77
2018-02-08T12:56:08.630Z,61.40
2018-02-08T12:58:34.905Z,67.80
2018-02-08T13:01:01.192Z,54.83
2018-02-08T13:03:28.216Z,58.23
2018-02-08T13:05:54.502Z,63.00
2018-02-08T13:08:20.808Z,66.30
2018-02-08T13:10:47.148Z,63.23
2018-02-08T13:13:13.420Z,68.57
2018-02-08T13:15:39.681Z,60.23
2018-02-08T13:18:06.751Z,61.20
2018-02-08T13:20:33.019Z,61.73
2018-02-08T13:22:59.344Z,69.47
2018-02-08T13:25:25.647Z,61.90
2018-02-08T13:27:52.015Z,70.77
2018-02-08T13:30:18.449Z,79.97
2018-02-08T13:32:44.792Z,63.80
2018-02-08T13:35:11.056Z,68.60
2018-02-08T13:37:38.078Z,80.20
2018-02-08T13:40:04.377Z,70.27
2018-02-08T13:42:30.636Z,62.20
2018-02-08T13:44:56.933Z,74.20
2018-02-08T13:47:29.319Z,73.73
2018-02-08T13:50:01.678Z,71.37
2018-02-08T13:52:34.082Z,77.67
2018-02-08T13:55:00.421Z,82.30
2018-02-08T13:57:29.585Z,69.07
2018-02-08T14:02:56.508Z,78.87
2018-02-08T14:05:22.749Z,66.80
2018-02-08T14:07:49.068Z,76.87
2018-02-08T14:10:15.330Z,69.73
2018-02-08T14:12:41.700Z,79.27
2018-02-08T14:15:07.966Z,66.20
2018-02-08T14:17:34.264Z,65.87
2018-02-08T14:20:00.542Z,67.90
2018-02-08T14:22:26.831Z,71.47
2018-02-08T14:24:53.075Z,66.30
2018-02-08T14:27:20.118Z,66.83
2018-02-08T14:29:47.129Z,65.23
2018-02-08T14:32:13.439Z,67.50
2018-02-08T14:34:40.396Z,69.07
2018-02-08T14:37:06.704Z,61.90
2018-02-08T14:39:32.962Z,63.63
2018-02-08T14:41:59.208Z,70.70
2018-02-08T14:44:25.495Z,60.63
2018-02-08T14:46:51.780Z,64.33
2018-02-08T14:49:18.084Z,69.90
2018-02-08T14:51:44.340Z,67.53
2018-02-08T14:54:10.580Z,58.03
2018-02-08T14:56:37.624Z,63.07
2018-02-08T14:59:04.646Z,58.30
2018-02-08T15:01:30.924Z,68.17
2018-02-08T15:03:57.204Z,68.47
2018-02-08T15:06:23.502Z,57.70
2018-02-08T15:08:49.767Z,52.10
2018-02-08T15:11:16.022Z,66.60
2018-02-08T15:13:43.025Z,58.23
2018-02-08T15:16:09.350Z,63.77
2018-02-08T15:18:35.636Z,58.20
2018-02-08T15:21:02.616Z,65.27
2018-02-08T15:23:28.890Z,59.63
2018-02-08T15:25:55.129Z,65.37
2018-02-08T15:28:21.379Z,54.50
2018-02-08T15:30:48.377Z,66.63
2018-02-08T15:33:14.652Z,55.63
2018-02-08T15:35:41.649Z,61.50
2018-02-08T15:38:07.896Z,63.17
2018-02-08T15:40:34.144Z,65.60
2018-02-08T15:43:01.210Z,58.87
2018-02-08T15:45:27.462Z,63.00
2018-02-08T15:47:53.743Z,67.80
2018-02-08T15:50:20.052Z,62.57
2018-02-08T15:52:46.300Z,61.23
2018-02-08T15:55:12.628Z,54.43
2018-02-08T15:57:38.911Z,62.00
2018-02-08T16:00:05.182Z,63.07
2018-02-08T16:02:31.488Z,62.07
2018-02-08T16:04:57.768Z,58.30
2018-02-08T16:07:24.793Z,65.20
2018-02-08T16:09:51.085Z,59.97
2018-02-08T16:12:17.410Z,69.80
2018-02-08T16:14:43.666Z,60.47
2018-02-08T16:17:09.934Z,59.67
2018-02-08T16:19:36.990Z,62.17
2018-02-08T16:22:03.321Z,58.27
2018-02-08T16:24:29.622Z,65.70
2018-02-08T16:26:55.891Z,57.70
2018-02-08T16:29:22.178Z,56.20
2018-02-08T16:31:48.449Z,69.80
2018-02-08T16:34:14.713Z,61.70
2018-02-08T16:36:40.952Z,58.10
2018-02-08T16:39:07.272Z,56.30
2018-02-08T16:41:33.524Z,61.80
2018-02-08T16:43:59.862Z,63.07
2018-02-08T16:46:26.112Z,56.70
2018-02-08T16:48:53.125Z,70.37
2018-02-08T16:51:19.485Z,57.47
2018-02-08T16:53:45.742Z,58.80
2018-02-08T16:56:12.006Z,60.37
2018-02-08T16:58:38.268Z,59.63
2018-02-08T17:01:04.550Z,54.13
2018-02-08T17:03:30.834Z,58.40
2018-02-08T17:05:57.887Z,59.47
2018-02-08T17:08:24.983Z,69.10
2018-02-08T17:10:51.225Z,59.73
2018-02-08T17:13:17.539Z,56.60
2018-02-08T17:15:43.826Z,66.77
2018-02-08T17:18:10.919Z,52.83
2018-02-08T17:20:37.207Z,59.40
2018-02-08T17:23:04.210Z,64.20
2018-02-08T17:25:30.520Z,59.70
2018-02-08T17:27:56.965Z,62.53
2018-02-08T17:30:23.209Z,60.00
2018-02-08T17:32:49.495Z,59.77
2018-02-08T17:35:15.774Z,55.93
2018-02-08T17:37:42.041Z,57.67
2018-02-08T17:40:13.110Z,63.83
2018-02-08T17:42:39.547Z,59.00
2018-02-08T17:45:05.965Z,60.73
2018-02-08T17:47:32.210Z,61.70
2018-02-08T17:49:58.499Z,57.40
2018-02-08T17:52:25.540Z,65.17
2018-02-08T17:54:51.936Z,63.63
2018-02-08T17:57:18.219Z,61.57
2018-02-08T17:59:45.265Z,61.43
2018-02-08T18:02:11.535Z,59.60
2018-02-08T18:04:37.867Z,62.27
2018-02-08T18:07:04.221Z,57.20
2018-02-08T18:09:30.646Z,57.97
2018-02-08T18:11:57.051Z,65.47
2018-02-08T18:14:23.379Z,60.57
2018-02-08T18:16:49.719Z,66.90
2018-02-08T18:19:16.047Z,61.03
2018-02-08T18:21:42.320Z,61.93
2018-02-08T18:24:08.783Z,66.07
2018-02-08T18:26:36.338Z,63.10
2018-02-08T18:29:03.426Z,68.33
2018-02-08T18:31:29.906Z,59.97
2018-02-08T18:33:56.286Z,66.00
2018-02-08T18:36:22.628Z,63.40
2018-02-08T18:38:48.896Z,71.10
2018-02-08T18:41:15.246Z,64.37
2018-02-08T18:43:41.566Z,70.60
2018-02-08T18:46:08.651Z,78.43
2018-02-08T18:48:34.985Z,84.53
2018-02-08T18:51:01.329Z,78.60
2018-02-08T18:53:27.662Z,74.47
2018-02-08T18:55:53.973Z,74.07
2018-02-08T18:58:20.235Z,69.23
2018-02-08T19:00:46.579Z,71.73
2018-02-08T19:03:13.041Z,66.60
2018-02-08T19:05:39.295Z,83.30
2018-02-08T19:08:06.365Z,77.93
2018-02-08T19:10:32.693Z,83.73
2018-02-08T19:12:59.105Z,73.47
2018-02-08T19:15:26.160Z,72.93
2018-02-08T19:17:52.492Z,71.23
2018-02-08T19:20:18.880Z,76.73
2018-02-08T19:22:45.206Z,72.47
2018-02-08T19:25:11.620Z,72.70
2018-02-08T19:27:37.904Z,69.60
2018-02-08T19:30:05.004Z,80.27
2018-02-08T19:32:32.010Z,75.17
2018-02-08T19:34:59.069Z,79.63
2018-02-08T19:37:25.523Z,83.17
2018-02-08T19:39:51.789Z,72.53
2018-02-08T19:42:18.109Z,73.17
2018-02-08T19:44:44.385Z,83.07
2018-02-08T19:47:11.445Z,69.87
2018-02-08T19:49:37.753Z,85.10
2018-02-08T19:52:04.891Z,80.77
2018-02-08T19:54:31.944Z,78.80
2018-02-08T19:56:58.968Z,74.17
2018-02-08T19:59:25.296Z,68.93
2018-02-08T20:01:51.568Z,69.73
2018-02-08T20:04:18.592Z,79.47
2018-02-08T20:06:45.040Z,75.90
2018-02-08T20:09:12.078Z,76.40
2018-02-08T20:11:38.416Z,80.23
2018-02-08T20:14:11.769Z,69.47
2018-02-08T20:16:38.141Z,85.63
2018-02-08T20:19:04.527Z,71.43
2018-02-08T20:21:30.859Z,76.97
2018-02-08T20:23:57.216Z,76.57
2018-02-08T20:26:23.492Z,74.47
2018-02-08T20:28:49.771Z,85.53
2018-02-08T20:31:16.150Z,75.37
2018-02-08T20:33:42.454Z,69.70
2018-02-08T20:36:08.721Z,79.77
2018-02-08T20:38:35.024Z,69.50
2018-02-08T20:41:02.098Z,78.80
2018-02-08T20:43:28.394Z,76.00
2018-02-08T20:45:54.692Z,79.23
2018-02-08T20:48:20.977Z,82.87
2018-02-08T20:50:47.253Z,85.40
2018-02-08T20:53:13.585Z,85.30
2018-02-08T20:55:39.880Z,85.90
2018-02-08T20:58:06.242Z,76.37
2018-02-08T21:00:33.292Z,88.67
2018-02-08T21:02:59.592Z,77.93
2018-02-08T21:05:25.877Z,77.90
2018-02-08T21:07:52.143Z,82.83
2018-02-08T21:10:18.443Z,85.47
2018-02-08T21:12:44.685Z,89.77
2018-02-08T21:15:11.715Z,85.27
2018-02-08T21:17:38.061Z,85.90
2018-02-08T21:20:05.075Z,88.00
2018-02-08T21:22:31.372Z,84.83
2018-02-08T21:24:58.327Z,85.40
2018-02-08T21:27:24.600Z,79.20
2018-02-08T21:29:50.910Z,88.67
2018-02-08T21:32:17.200Z,84.07
2018-02-08T21:34:43.472Z,81.30
2018-02-08T21:37:09.787Z,86.13
2018-02-08T21:39:36.092Z,73.73
2018-02-08T21:42:02.430Z,91.53
2018-02-08T21:44:28.732Z,91.13
2018-02-08T21:46:55.769Z,77.53
2018-02-08T21:49:22.068Z,78.97
2018-02-08T21:51:48.403Z,80.30
2018-02-08T21:54:14.673Z,81.30
2018-02-08T21:56:41.693Z,82.63
2018-02-08T21:59:07.956Z,89.37
2018-02-08T22:01:34.977Z,87.33
2018-02-08T22:04:01.284Z,84.93
2018-02-08T22:06:27.563Z,86.87
2018-02-08T22:08:54.618Z,84.03
2018-02-08T22:11:21.641Z,85.87
2018-02-08T22:13:47.966Z,83.07
2018-02-08T22:16:14.256Z,82.30
2018-02-08T22:18:40.597Z,87.33
2018-02-08T22:21:06.911Z,91.00
2018-02-08T22:23:33.212Z,88.50
2018-02-08T22:26:00.208Z,78.83
2018-02-08T22:28:26.478Z,87.67
2018-02-08T22:30:53.473Z,79.27
2018-02-08T22:33:19.713Z,82.47
2018-02-08T22:35:45.954Z,81.30
2018-02-08T22:38:12.273Z,86.03
2018-02-08T22:40:38.541Z,88.93
2018-02-08T22:43:04.891Z,100.40
2018-02-08T22:45:31.915Z,93.83
2018-02-08T22:47:59.729Z,97.70
2018-02-08T22:50:26.071Z,91.33
2018-02-08T22:52:52.321Z,89.67
2018-02-08T22:55:18.595Z,84.20
2018-02-08T22:57:52.709Z,83.97
2018-02-08T23:00:19.837Z,93.37
2018-02-08T23:02:46.085Z,81.07
2018-02-08T23:05:13.260Z,91.80
2018-02-08T23:07:40.269Z,88.50
2018-02-08T23:10:06.567Z,86.30
2018-02-08T23:12:32.845Z,88.17
2018-02-08T23:14:59.867Z,100.97
2018-02-08T23:17:26.157Z,90.33
2018-02-08T23:19:52.435Z,85.70
2018-02-08T23:22:18.679Z,91.27
2018-02-08T23:24:45.704Z,83.23
2018-02-08T23:27:12.048Z,83.57
2018-02-08T23:29:39.082Z,86.27
2018-02-08T23:32:05.416Z,88.60
2018-02-08T23:34:31.751Z,83.03
2018-02-08T23:36:58.057Z,75.73
2018-02-08T23:39:24.414Z,93.40
2018-02-08T23:41:50.783Z,89.37
2018-02-08T23:44:17.060Z,89.23
2018-02-08T23:46:43.336Z,83.00
2018-02-08T23:49:09.640Z,86.07
2018-02-08T23:51:35.936Z,82.17
2018-02-08T23:54:02.291Z,87.50
2018-02-08T23:56:28.599Z,82.17
2018-02-08T23:58:54.891Z,86.97
